Time;durP1;ratioP1;P1;durP2;ratioP2;P2;SDS_P1;SDS_P2;PMS_P1;PMS_P2;Temp;Humidity;BMP_temperature;BMP_pressure;BME280_temperature;BME280_humidity;BME280_pressure;Samples;Min_cycle;Max_cycle;Signal;HPM_P1;HPM_P2
2022/10/05 00:01:53;;;;;;;11.13;8.65;;;9.20;99.90;;;;;;5070569;28;20710;-66
2022/10/05 00:04:24;;;;;;;22.23;14.18;;;9.10;99.90;;;;;;5053820;28;20196;-66
2022/10/05 00:07:00;;;;;;;20.75;12.30;;;8.90;99.90;;;;;;5064823;28;20199;-66
2022/10/05 00:09:31;;;;;;;14.90;10.45;;;8.90;99.90;;;;;;5069462;28;20218;-66
2022/10/05 00:12:13;;;;;;;14.20;9.20;;;8.80;99.90;;;;;;5070999;28;20184;-67
2022/10/05 00:14:42;;;;;;;13.57;10.90;;;8.70;99.90;;;;;;5050643;28;20193;-66
2022/10/05 00:17:17;;;;;;;9.45;8.35;;;8.70;99.90;;;;;;5050841;28;20204;-66
2022/10/05 00:19:50;;;;;;;14.32;10.18;;;8.60;99.90;;;;;;5059668;28;20196;-66
2022/10/05 00:22:21;;;;;;;12.23;8.40;;;8.60;99.90;;;;;;5057346;28;20192;-66
2022/10/05 00:24:54;;;;;;;14.18;9.35;;;8.70;99.90;;;;;;5050799;28;20235;-66
2022/10/05 00:27:25;;;;;;;10.85;9.23;;;8.70;99.90;;;;;;5066194;28;20272;-66
2022/10/05 00:29:57;;;;;;;12.77;9.13;;;8.80;99.90;;;;;;5061652;28;20197;-66
2022/10/05 00:32:26;;;;;;;14.60;9.52;;;8.80;99.90;;;;;;5050802;28;20200;-67
2022/10/05 00:34:57;;;;;;;15.05;9.32;;;8.80;99.90;;;;;;5068865;28;20211;-67
2022/10/05 00:37:25;;;;;;;15.73;9.82;;;8.80;99.90;;;;;;5066667;28;20199;-66
2022/10/05 00:39:53;;;;;;;13.68;9.45;;;8.80;99.90;;;;;;5058373;28;20299;-67
2022/10/05 00:42:37;;;;;;;14.88;8.55;;;8.70;99.90;;;;;;5066915;28;20207;-66
2022/10/05 00:45:10;;;;;;;11.68;8.02;;;8.80;99.90;;;;;;5050340;28;20212;-66
2022/10/05 00:47:49;;;;;;;26.42;10.73;;;8.70;99.90;;;;;;5061335;28;20204;-66
2022/10/05 00:50:40;;;;;;;19.27;12.15;;;8.70;99.90;;;;;;5070378;28;20246;-66
2022/10/05 00:53:20;;;;;;;13.50;8.75;;;8.80;99.90;;;;;;5055347;28;20282;-66
2022/10/05 00:55:57;;;;;;;10.40;8.68;;;8.70;99.90;;;;;;5051808;28;20203;-66
2022/10/05 00:58:37;;;;;;;12.20;8.57;;;8.70;99.90;;;;;;5056072;28;20610;-66
2022/10/05 01:01:11;;;;;;;13.57;7.60;;;8.70;99.90;;;;;;5070026;28;20184;-66
2022/10/05 01:03:52;;;;;;;6.47;5.90;;;8.60;99.90;;;;;;5056801;28;20210;-66
2022/10/05 01:06:31;;;;;;;11.20;6.22;;;8.60;99.90;;;;;;5048812;28;20189;-66
2022/10/05 01:09:08;;;;;;;9.60;6.65;;;8.60;99.90;;;;;;5049998;28;20212;-66
2022/10/05 01:11:44;;;;;;;7.07;6.38;;;8.50;99.90;;;;;;5050401;28;20680;-67
2022/10/05 01:14:20;;;;;;;7.38;6.68;;;8.40;99.90;;;;;;5061188;28;20195;-66
2022/10/05 01:16:52;;;;;;;9.73;7.60;;;8.40;99.90;;;;;;5060407;28;20214;-66
2022/10/05 01:19:48;;;;;;;7.50;6.60;;;8.40;99.90;;;;;;5036611;28;20556;-66
2022/10/05 01:22:29;;;;;;;9.13;7.50;;;8.40;99.90;;;;;;5050020;28;20185;-66
2022/10/05 01:25:12;;;;;;;10.13;7.22;;;8.40;99.90;;;;;;5052671;28;20684;-66
2022/10/05 01:27:51;;;;;;;8.38;7.68;;;8.30;99.90;;;;;;5051135;28;20204;-67
2022/10/05 01:30:20;;;;;;;9.23;6.72;;;8.30;99.90;;;;;;5059736;28;20228;-67
2022/10/05 01:32:56;;;;;;;8.57;7.60;;;8.30;99.90;;;;;;5062769;28;20651;-67
2022/10/05 01:35:44;;;;;;;8.27;7.53;;;8.40;99.90;;;;;;5061412;28;20184;-67
2022/10/05 01:38:24;;;;;;;14.20;7.13;;;8.40;99.90;;;;;;5066472;28;20203;-66
2022/10/05 01:40:58;;;;;;;11.88;8.32;;;8.40;99.90;;;;;;5067692;28;20195;-66
2022/10/05 01:43:34;;;;;;;21.85;9.80;;;8.40;99.90;;;;;;5062222;28;20205;-66
2022/10/05 01:46:10;;;;;;;13.65;9.30;;;8.50;99.90;;;;;;5049598;28;20184;-67
2022/10/05 01:49:10;;;;;;;9.65;7.43;;;8.40;99.90;;;;;;5050362;28;20570;-66
2022/10/05 01:51:47;;;;;;;9.95;8.30;;;8.40;99.90;;;;;;5060342;28;20228;-66
2022/10/05 01:54:26;;;;;;;28.25;12.25;;;8.30;99.90;;;;;;5049722;28;20279;-67
2022/10/05 01:57:05;;;;;;;12.63;8.52;;;8.30;99.90;;;;;;5051605;28;20228;-66
2022/10/05 01:59:46;;;;;;;18.05;10.07;;;8.20;99.90;;;;;;5048262;28;20654;-67
2022/10/05 02:02:18;;;;;;;16.08;9.48;;;8.10;99.90;;;;;;5050575;28;20237;-67
2022/10/05 02:04:50;;;;;;;12.85;8.80;;;8.10;99.90;;;;;;5049806;28;20394;-66
2022/10/05 02:07:23;;;;;;;11.43;8.45;;;8.00;99.90;;;;;;5051279;28;20192;-66
2022/10/05 02:09:55;;;;;;;19.67;9.80;;;8.00;99.90;;;;;;5051469;28;20217;-67
2022/10/05 02:12:28;;;;;;;14.27;9.20;;;7.90;99.90;;;;;;5047746;28;20232;-67
2022/10/05 02:15:07;;;;;;;13.27;10.18;;;7.80;99.90;;;;;;5047429;28;20235;-67
2022/10/05 02:17:40;;;;;;;12.68;9.88;;;7.80;99.90;;;;;;5047594;28;20202;-66
2022/10/05 02:20:11;;;;;;;10.15;7.70;;;7.80;99.90;;;;;;5048964;28;20180;-66
2022/10/05 02:22:44;;;;;;;12.05;7.60;;;7.90;99.90;;;;;;5068714;28;20249;-66
2022/10/05 02:25:16;;;;;;;9.35;8.25;;;8.00;99.90;;;;;;5053598;28;20207;-67
2022/10/05 02:27:55;;;;;;;9.00;8.10;;;8.00;99.90;;;;;;5072879;28;20192;-66
2022/10/05 02:30:24;;;;;;;10.70;8.75;;;8.00;99.90;;;;;;5055543;28;20231;-66
2022/10/05 02:32:56;;;;;;;10.70;7.85;;;8.10;99.90;;;;;;5051502;28;20219;-67
2022/10/05 02:35:24;;;;;;;9.65;8.27;;;8.00;99.90;;;;;;5051452;28;20189;-67
2022/10/05 02:38:04;;;;;;;8.07;7.18;;;8.10;99.90;;;;;;5064224;28;20546;-66
2022/10/05 02:40:41;;;;;;;12.18;8.52;;;8.00;99.90;;;;;;5051294;28;20185;-66
2022/10/05 02:43:19;;;;;;;8.00;7.35;;;7.90;99.90;;;;;;5060725;28;20203;-66
2022/10/05 02:45:57;;;;;;;11.55;7.70;;;7.90;99.90;;;;;;5051506;28;20195;-66
2022/10/05 02:48:36;;;;;;;9.60;8.30;;;7.80;99.90;;;;;;5051483;28;20196;-66
2022/10/05 02:51:16;;;;;;;10.90;8.73;;;7.80;99.90;;;;;;5050547;28;20224;-66
2022/10/05 02:53:55;;;;;;;13.57;9.57;;;7.80;99.90;;;;;;5051566;28;20193;-66
2022/10/05 02:56:30;;;;;;;12.40;8.85;;;7.80;99.90;;;;;;5058733;28;20226;-67
2022/10/05 02:59:06;;;;;;;9.60;8.60;;;7.90;99.90;;;;;;5058377;28;20192;-66
2022/10/05 03:01:41;;;;;;;11.35;9.20;;;7.80;99.90;;;;;;5066615;28;20196;-67
2022/10/05 03:04:20;;;;;;;11.52;8.82;;;7.90;99.90;;;;;;5062480;28;20199;-68
2022/10/05 03:06:57;;;;;;;12.40;9.57;;;7.90;99.90;;;;;;5051545;28;20207;-66
2022/10/05 03:09:31;;;;;;;11.63;9.95;;;8.00;99.90;;;;;;5052233;28;20773;-67
2022/10/05 03:12:09;;;;;;;15.20;10.40;;;8.00;99.90;;;;;;5052771;28;20196;-67
2022/10/05 03:14:46;;;;;;;15.80;9.02;;;8.00;99.90;;;;;;5051828;28;20216;-66
2022/10/05 03:17:19;;;;;;;12.82;10.00;;;8.00;99.90;;;;;;5051177;28;20194;-66
2022/10/05 03:20:09;;;;;;;17.27;10.10;;;8.00;99.90;;;;;;5050090;28;20822;-67
2022/10/05 03:22:48;;;;;;;14.73;10.73;;;8.00;99.90;;;;;;5050585;28;20188;-66
2022/10/05 03:25:40;;;;;;;15.98;11.30;;;8.00;99.90;;;;;;5059882;28;20253;-66
2022/10/05 03:28:16;;;;;;;14.55;11.38;;;7.90;99.90;;;;;;5050963;28;20196;-67
2022/10/05 03:30:58;;;;;;;20.33;10.30;;;7.90;99.90;;;;;;5051256;28;20223;-66
2022/10/05 03:33:38;;;;;;;16.58;9.85;;;7.90;99.90;;;;;;5057623;28;20200;-67
2022/10/05 03:36:12;;;;;;;14.60;11.27;;;7.90;99.90;;;;;;5063885;28;20184;-66
2022/10/05 03:38:46;;;;;;;15.85;10.68;;;7.90;99.90;;;;;;5070985;28;20211;-66
2022/10/05 03:41:21;;;;;;;14.07;11.02;;;7.90;99.90;;;;;;5053910;28;20641;-66
2022/10/05 03:44:13;;;;;;;12.13;9.73;;;7.90;99.90;;;;;;5061981;28;20846;-67
2022/10/05 03:46:52;;;;;;;12.00;9.90;;;7.90;99.90;;;;;;5051547;28;20205;-66
2022/10/05 03:49:31;;;;;;;13.38;10.90;;;7.90;99.90;;;;;;5060624;28;20198;-66
2022/10/05 03:52:06;;;;;;;18.40;10.27;;;7.90;99.90;;;;;;5052367;28;20192;-66
2022/10/05 03:54:39;;;;;;;11.57;9.80;;;7.80;99.90;;;;;;5063488;28;20191;-66
2022/10/05 03:57:11;;;;;;;14.98;11.20;;;7.80;99.90;;;;;;5067764;28;20223;-66
2022/10/05 03:59:44;;;;;;;13.68;9.30;;;7.80;99.90;;;;;;5070629;28;20745;-67
2022/10/05 04:02:20;;;;;;;13.45;11.00;;;7.80;99.90;;;;;;5054640;28;20594;-66
2022/10/05 04:04:57;;;;;;;12.63;10.52;;;7.80;99.90;;;;;;5068603;28;20198;-67
2022/10/05 04:07:37;;;;;;;13.23;10.57;;;7.80;99.90;;;;;;5061590;28;20193;-66
2022/10/05 04:10:14;;;;;;;13.95;11.45;;;7.80;99.90;;;;;;5068359;28;20207;-66
2022/10/05 04:12:48;;;;;;;13.77;9.40;;;7.80;99.90;;;;;;5052744;28;20200;-66
2022/10/05 04:15:23;;;;;;;12.73;11.25;;;7.80;99.90;;;;;;5050049;28;20196;-66
2022/10/05 04:17:59;;;;;;;11.65;9.75;;;7.80;99.90;;;;;;5062040;28;20276;-67
2022/10/05 04:20:34;;;;;;;12.57;10.20;;;7.80;99.90;;;;;;5071155;28;20604;-66
2022/10/05 04:23:13;;;;;;;14.55;11.27;;;7.80;99.90;;;;;;5068049;28;20199;-66
2022/10/05 04:25:46;;;;;;;12.82;11.32;;;7.80;99.90;;;;;;5051230;28;20216;-66
2022/10/05 04:28:24;;;;;;;13.60;11.00;;;7.70;99.90;;;;;;5037906;28;20788;-66
2022/10/05 04:30:53;;;;;;;15.98;12.65;;;7.70;99.90;;;;;;5070720;28;20256;-66
2022/10/05 04:33:22;;;;;;;14.93;11.10;;;7.70;99.90;;;;;;5064295;28;20196;-66
2022/10/05 04:36:12;;;;;;;13.10;10.35;;;7.70;99.90;;;;;;5049281;28;20211;-66
2022/10/05 04:38:49;;;;;;;13.30;10.32;;;7.60;99.90;;;;;;5049412;28;20219;-66
2022/10/05 04:41:33;;;;;;;19.58;10.95;;;7.50;99.90;;;;;;5049444;28;20245;-66
2022/10/05 04:44:16;;;;;;;15.25;10.50;;;7.50;99.90;;;;;;5050427;28;20651;-66
2022/10/05 04:47:03;;;;;;;12.70;10.80;;;7.50;99.90;;;;;;5048868;28;20200;-66
2022/10/05 04:49:47;;;;;;;14.70;10.90;;;7.50;99.90;;;;;;5049569;28;20249;-67
2022/10/05 04:52:23;;;;;;;16.58;11.57;;;7.60;99.90;;;;;;5058452;28;20201;-66
2022/10/05 04:55:02;;;;;;;15.10;12.15;;;7.60;99.90;;;;;;5049457;28;20211;-66
2022/10/05 04:57:40;;;;;;;16.25;12.65;;;7.70;99.90;;;;;;5048650;28;20239;-67
2022/10/05 05:00:19;;;;;;;19.48;13.68;;;7.70;99.90;;;;;;5065193;28;20188;-66
2022/10/05 05:03:11;;;;;;;18.52;13.50;;;7.80;99.90;;;;;;5048944;28;20196;-66
2022/10/05 05:05:48;;;;;;;22.70;14.57;;;7.90;99.90;;;;;;5060915;28;20197;-66
2022/10/05 05:08:35;;;;;;;22.83;15.05;;;7.90;99.90;;;;;;5066667;28;20184;-66
2022/10/05 05:11:26;;;;;;;21.00;14.60;;;7.90;99.90;;;;;;5054196;28;20219;-66
2022/10/05 05:14:26;;;;;;;20.17;14.90;;;7.90;99.90;;;;;;5058687;28;20926;-66
2022/10/05 05:17:08;;;;;;;26.20;16.02;;;7.80;99.90;;;;;;5073185;28;20196;-67
2022/10/05 05:19:45;;;;;;;23.45;14.23;;;7.80;99.90;;;;;;5053160;28;20584;-67
2022/10/05 05:22:24;;;;;;;25.02;14.30;;;7.80;99.90;;;;;;5052765;28;20200;-66
2022/10/05 05:25:09;;;;;;;21.20;15.85;;;7.70;99.90;;;;;;5054279;28;20192;-66
2022/10/05 05:27:42;;;;;;;23.38;15.38;;;7.70;99.90;;;;;;5058029;28;20601;-67
2022/10/05 05:30:20;;;;;;;21.65;15.07;;;7.70;99.90;;;;;;5057048;28;20682;-66
2022/10/05 05:33:15;;;;;;;24.58;16.20;;;7.60;99.90;;;;;;5049878;28;20184;-66
2022/10/05 05:36:18;;;;;;;18.08;15.07;;;7.60;99.90;;;;;;5049249;28;20725;-66
2022/10/05 05:38:52;;;;;;;21.65;18.08;;;7.70;99.90;;;;;;5049712;28;20755;-67
2022/10/05 05:41:30;;;;;;;22.65;15.23;;;7.60;99.90;;;;;;5075411;28;20192;-68
2022/10/05 05:44:06;;;;;;;24.92;14.55;;;7.70;99.90;;;;;;5073553;28;20774;-68
2022/10/05 05:46:38;;;;;;;24.30;16.38;;;7.70;99.90;;;;;;5067865;28;20286;-67
2022/10/05 05:49:15;;;;;;;26.90;15.15;;;7.70;99.90;;;;;;5068285;28;20203;-67
2022/10/05 05:51:49;;;;;;;22.88;15.98;;;7.70;99.90;;;;;;5069564;28;20234;-67
2022/10/05 05:54:30;;;;;;;21.40;14.98;;;7.80;99.90;;;;;;5069441;28;20192;-67
2022/10/05 05:57:11;;;;;;;22.38;15.02;;;7.90;99.90;;;;;;5062976;28;20246;-67
2022/10/05 05:59:56;;;;;;;18.70;13.10;;;7.90;99.90;;;;;;5072710;28;20191;-67
2022/10/05 06:02:30;;;;;;;18.88;14.15;;;7.90;99.90;;;;;;5066558;28;20227;-66
2022/10/05 06:05:07;;;;;;;21.00;13.15;;;7.90;99.90;;;;;;5058031;28;20203;-67
2022/10/05 06:07:37;;;;;;;19.45;12.73;;;7.90;99.90;;;;;;5052898;28;20203;-66
2022/10/05 06:10:28;;;;;;;21.35;13.48;;;7.90;99.90;;;;;;5050257;28;20654;-66
2022/10/05 06:13:11;;;;;;;16.20;12.30;;;7.90;99.90;;;;;;5053387;28;20215;-66
2022/10/05 06:15:44;;;;;;;20.63;14.10;;;8.00;99.90;;;;;;5065523;28;20646;-66
2022/10/05 06:18:16;;;;;;;18.88;13.30;;;8.00;99.90;;;;;;5060689;28;20301;-67
2022/10/05 06:20:53;;;;;;;20.80;13.98;;;7.90;99.90;;;;;;5056310;28;20196;-66
2022/10/05 06:23:25;;;;;;;19.02;13.60;;;7.90;99.90;;;;;;5056358;28;20196;-66
2022/10/05 06:26:19;;;;;;;24.48;16.92;;;8.00;99.90;;;;;;5061017;28;20242;-66
2022/10/05 06:28:54;;;;;;;122.10;20.27;;;8.10;99.90;;;;;;5061506;28;20263;-66
2022/10/05 06:31:37;;;;;;;87.40;22.10;;;8.10;99.90;;;;;;5060626;28;20216;-66
2022/10/05 06:34:18;;;;;;;84.53;22.48;;;8.20;99.90;;;;;;5050364;28;20662;-66
2022/10/05 06:36:53;;;;;;;53.88;19.67;;;8.20;99.90;;;;;;5056270;28;20257;-66
2022/10/05 06:39:41;;;;;;;70.13;22.10;;;8.20;99.90;;;;;;5072196;28;20192;-67
2022/10/05 06:42:34;;;;;;;80.55;22.70;;;8.40;99.90;;;;;;5074491;28;20642;-66
2022/10/05 06:45:35;;;;;;;73.50;19.90;;;8.50;99.90;;;;;;5026181;28;20197;-66
2022/10/05 06:48:41;;;;;;;65.57;21.58;;;8.50;99.90;;;;;;5052076;28;20200;-66
2022/10/05 06:51:35;;;;;;;109.95;20.50;;;8.70;99.90;;;;;;5064987;28;20600;-66
2022/10/05 06:54:52;;;;;;;117.50;21.63;;;8.70;99.90;;;;;;5069723;28;20195;-66
2022/10/05 06:57:43;;;;;;;76.72;19.00;;;8.80;99.90;;;;;;5025006;28;20228;-66
2022/10/05 07:00:18;;;;;;;111.93;20.35;;;8.90;99.90;;;;;;5050931;28;20209;-66
2022/10/05 07:02:55;;;;;;;158.90;19.85;;;8.90;99.90;;;;;;5058488;28;20187;-66
2022/10/05 07:05:43;;;;;;;114.40;19.73;;;8.90;99.90;;;;;;5070424;28;20193;-66
2022/10/05 07:08:17;;;;;;;49.72;18.77;;;9.00;99.90;;;;;;5067163;28;20192;-66
2022/10/05 07:10:59;;;;;;;101.60;19.85;;;9.10;99.90;;;;;;5055363;28;20193;-66
2022/10/05 07:13:46;;;;;;;34.83;18.55;;;9.10;99.90;;;;;;5065097;28;20200;-66
2022/10/05 07:16:24;;;;;;;70.03;19.20;;;9.50;99.90;;;;;;5062779;28;20279;-66
2022/10/05 07:19:09;;;;;;;40.15;20.98;;;9.30;99.90;;;;;;5069965;28;20558;-66
2022/10/05 07:21:47;;;;;;;44.28;17.23;;;9.40;99.90;;;;;;5055179;28;20203;-66
2022/10/05 07:24:29;;;;;;;34.75;20.67;;;9.50;99.90;;;;;;5057372;28;20214;-66
2022/10/05 07:27:06;;;;;;;35.47;18.55;;;9.60;99.90;;;;;;5064778;28;20188;-66
2022/10/05 07:29:39;;;;;;;29.33;17.88;;;9.70;99.90;;;;;;5068678;28;20204;-66
2022/10/05 07:32:21;;;;;;;28.83;16.85;;;10.00;99.90;;;;;;5068019;28;20212;-67
2022/10/05 07:35:02;;;;;;;19.75;14.15;;;10.10;99.90;;;;;;5072161;28;20192;-66
2022/10/05 07:37:53;;;;;;;21.80;16.55;;;10.00;99.90;;;;;;5062634;28;20636;-66
2022/10/05 07:40:29;;;;;;;19.35;16.10;;;10.30;99.90;;;;;;5058819;28;20180;-66
2022/10/05 07:43:07;;;;;;;21.98;16.40;;;10.40;99.90;;;;;;5070763;28;20190;-66
2022/10/05 07:45:42;;;;;;;19.10;16.60;;;10.60;99.90;;;;;;5052388;28;20818;-66
2022/10/05 07:48:15;;;;;;;18.38;15.23;;;10.70;99.90;;;;;;5057276;28;20940;-66
2022/10/05 07:50:56;;;;;;;21.10;13.25;;;10.80;99.90;;;;;;5055454;28;20247;-67
2022/10/05 07:53:30;;;;;;;18.23;15.30;;;11.00;99.90;;;;;;5055929;28;20189;-67
2022/10/05 07:56:04;;;;;;;17.27;14.50;;;11.10;99.90;;;;;;5056007;28;20191;-66
2022/10/05 07:58:40;;;;;;;15.15;13.13;;;11.20;99.90;;;;;;5057330;28;20276;-66
2022/10/05 08:01:13;;;;;;;15.88;14.23;;;11.40;99.90;;;;;;5055577;28;20185;-66
2022/10/05 08:03:52;;;;;;;15.95;14.32;;;11.60;99.90;;;;;;5061501;28;20638;-67
2022/10/05 08:06:39;;;;;;;23.17;15.45;;;11.80;99.90;;;;;;5056391;28;20197;-67
2022/10/05 08:09:14;;;;;;;17.40;15.70;;;11.90;99.90;;;;;;5058866;28;20222;-66
2022/10/05 08:11:51;;;;;;;16.13;13.60;;;12.00;99.90;;;;;;5051797;28;20634;-66
2022/10/05 08:14:26;;;;;;;16.80;13.90;;;12.20;99.90;;;;;;5056033;28;20207;-66
2022/10/05 08:16:57;;;;;;;16.48;13.60;;;12.50;99.90;;;;;;5060596;28;20283;-66
2022/10/05 08:19:32;;;;;;;16.05;14.35;;;12.60;99.90;;;;;;5056619;28;20185;-67
2022/10/05 08:22:06;;;;;;;13.68;12.25;;;12.70;99.90;;;;;;5063390;28;20202;-67
2022/10/05 08:24:46;;;;;;;15.73;12.80;;;12.90;99.90;;;;;;5077759;28;20172;-66
2022/10/05 08:27:20;;;;;;;12.93;11.63;;;13.10;99.90;;;;;;5072738;28;20655;-66
2022/10/05 08:29:55;;;;;;;14.97;13.33;;;13.30;99.90;;;;;;5079916;28;20618;-66
2022/10/05 08:32:26;;;;;;;14.87;11.57;;;13.40;99.90;;;;;;5061412;28;20973;-66
2022/10/05 08:35:01;;;;;;;13.10;11.83;;;13.60;99.90;;;;;;5079014;28;20606;-65
2022/10/05 08:37:34;;;;;;;11.63;10.43;;;13.80;99.90;;;;;;5061722;28;20582;-65
2022/10/05 08:40:29;;;;;;;11.93;10.73;;;13.80;99.90;;;;;;5053751;28;20618;-64
2022/10/05 08:43:21;;;;;;;13.70;10.33;;;13.90;99.90;;;;;;5051437;28;20578;-66
2022/10/05 08:46:16;;;;;;;15.43;9.43;;;14.20;99.90;;;;;;5054476;28;21178;-66
2022/10/05 08:49:17;;;;;;;12.07;10.70;;;14.40;99.90;;;;;;5066349;28;20630;-66
2022/10/05 08:52:31;;;;;;;10.43;9.50;;;14.30;99.90;;;;;;5051192;28;21056;-66
2022/10/05 08:55:33;;;;;;;11.93;8.83;;;14.50;99.90;;;;;;4991842;28;21215;-66
2022/10/05 08:58:46;;;;;;;9.20;8.33;;;14.70;99.90;;;;;;5061603;28;20664;-66
2022/10/05 09:01:20;;;;;;;12.47;8.83;;;14.70;99.90;;;;;;5064297;28;20701;-65
2022/10/05 09:04:25;;;;;;;9.23;7.90;;;14.90;99.90;;;;;;5056532;28;20695;-65
2022/10/05 09:07:15;;;;;;;10.90;8.90;;;15.00;99.90;;;;;;5047387;28;20631;-65
2022/10/05 09:10:19;;;;;;;21.30;8.37;;;15.10;99.90;;;;;;5055544;28;20623;-66
2022/10/05 09:13:12;;;;;;;12.40;8.43;;;15.20;99.90;;;;;;5052758;28;20658;-65
2022/10/05 09:16:13;;;;;;;13.50;9.83;;;15.20;99.90;;;;;;5052042;28;20627;-65
2022/10/05 09:19:03;;;;;;;9.47;8.57;;;15.30;99.90;;;;;;5033601;28;20630;-66
2022/10/05 09:21:41;;;;;;;7.93;7.23;;;15.60;99.90;;;;;;5054126;28;20559;-65
2022/10/05 09:24:28;;;;;;;8.17;7.40;;;15.70;99.90;;;;;;5067215;28;20614;-66
2022/10/05 09:27:07;;;;;;;7.33;6.67;;;15.70;99.90;;;;;;5066563;28;20639;-65
2022/10/05 09:30:04;;;;;;;10.00;8.10;;;15.90;99.90;;;;;;5055388;28;20607;-65
2022/10/05 09:33:09;;;;;;;7.30;6.70;;;16.00;99.90;;;;;;5050898;28;21001;-65
2022/10/05 09:36:19;;;;;;;9.37;7.00;;;15.90;99.90;;;;;;5052331;28;20627;-65
2022/10/05 09:39:14;;;;;;;6.33;5.83;;;16.20;99.90;;;;;;5011516;28;20633;-65
2022/10/05 09:42:05;;;;;;;24.57;8.00;;;16.30;99.90;;;;;;5047889;28;20611;-65
2022/10/05 09:45:12;;;;;;;6.43;5.93;;;16.40;99.90;;;;;;5068714;28;20611;-66
2022/10/05 09:48:02;;;;;;;9.37;5.10;;;16.20;99.90;;;;;;5059438;28;20704;-66
2022/10/05 09:51:07;;;;;;;9.37;6.87;;;16.60;99.90;;;;;;5049294;28;20672;-66
2022/10/05 09:54:10;;;;;;;7.07;5.87;;;16.70;99.90;;;;;;5048197;28;21364;-65
2022/10/05 09:57:02;;;;;;;6.70;4.83;;;17.00;99.90;;;;;;5044479;28;20762;-68
2022/10/05 10:00:07;;;;;;;5.43;5.10;;;16.90;99.90;;;;;;5048987;28;20611;-65
2022/10/05 10:03:19;;;;;;;5.17;4.77;;;17.10;99.90;;;;;;5067900;28;20593;-65
2022/10/05 10:06:11;;;;;;;8.57;4.30;;;17.10;99.90;;;;;;5063180;28;20634;-65
2022/10/05 10:08:51;;;;;;;5.20;4.80;;;17.30;99.90;;;;;;5061588;28;20627;-65
2022/10/05 10:11:40;;;;;;;4.83;4.43;;;17.40;99.90;;;;;;5059855;28;20611;-65
2022/10/05 10:14:48;;;;;;;6.53;4.43;;;17.60;99.90;;;;;;5056825;28;20650;-65
2022/10/05 10:17:49;;;;;;;5.37;3.87;;;17.60;99.90;;;;;;5032634;28;21235;-65
2022/10/05 10:20:33;;;;;;;4.97;4.23;;;17.90;99.90;;;;;;5055516;28;20639;-65
2022/10/05 10:23:23;;;;;;;4.03;3.73;;;18.00;99.90;;;;;;5048970;28;20938;-65
2022/10/05 10:26:24;;;;;;;4.10;3.80;;;18.10;99.90;;;;;;5050142;28;20622;-65
2022/10/05 10:29:13;;;;;;;4.30;4.00;;;18.40;99.90;;;;;;5040361;28;21120;-65
2022/10/05 10:32:02;;;;;;;4.20;3.80;;;18.60;99.90;;;;;;5044442;28;21224;-65
2022/10/05 10:34:48;;;;;;;5.00;4.60;;;18.30;99.90;;;;;;5054403;28;20681;-65
2022/10/05 10:37:57;;;;;;;4.03;3.73;;;18.30;99.90;;;;;;5048979;28;20627;-65
2022/10/05 10:40:36;;;;;;;4.20;3.90;;;18.60;99.90;;;;;;5048255;28;20623;-65
2022/10/05 10:43:39;;;;;;;5.33;3.90;;;18.90;99.90;;;;;;5048741;28;20591;-65
2022/10/05 10:46:20;;;;;;;4.17;3.87;;;18.70;99.90;;;;;;5051391;28;20619;-66
2022/10/05 10:48:57;;;;;;;3.60;3.30;;;19.00;99.90;;;;;;5054198;28;20610;-65
2022/10/05 10:51:54;;;;;;;6.60;3.70;;;19.50;99.90;;;;;;5054195;28;20673;-65
2022/10/05 10:54:55;;;;;;;3.70;3.40;;;19.60;99.90;;;;;;5045258;28;21268;-65
2022/10/05 10:57:32;;;;;;;4.10;3.83;;;20.10;99.90;;;;;;5055440;28;20723;-65
2022/10/05 11:00:23;;;;;;;4.40;4.10;;;20.20;99.90;;;;;;5060059;28;21172;-66
2022/10/05 11:03:07;;;;;;;4.77;3.63;;;20.20;99.90;;;;;;5064127;28;21047;-66
2022/10/05 11:06:10;;;;;;;4.10;3.70;;;20.50;99.90;;;;;;5074222;28;20610;-66
2022/10/05 11:09:01;;;;;;;3.67;3.33;;;20.70;99.90;;;;;;5069912;28;21063;-66
2022/10/05 11:12:04;;;;;;;5.93;3.90;;;20.90;99.90;;;;;;5053017;28;21145;-66
2022/10/05 11:14:45;;;;;;;4.70;3.20;;;21.20;99.90;;;;;;5054640;28;20661;-66
2022/10/05 11:17:33;;;;;;;3.83;3.53;;;21.20;99.90;;;;;;5057276;28;20671;-66
2022/10/05 11:20:18;;;;;;;4.00;3.70;;;21.50;99.90;;;;;;5051297;28;20627;-66
2022/10/05 11:22:59;;;;;;;5.67;3.50;;;21.40;99.90;;;;;;5064232;28;20609;-66
2022/10/05 11:25:57;;;;;;;3.90;3.50;;;21.70;99.90;;;;;;5049342;28;20602;-66
2022/10/05 11:29:03;;;;;;;7.63;3.63;;;21.60;99.90;;;;;;5057223;28;20641;-66
2022/10/05 11:32:01;;;;;;;4.07;3.77;;;21.70;99.90;;;;;;5047861;28;20788;-66
2022/10/05 11:34:48;;;;;;;7.03;3.30;;;21.90;99.90;;;;;;5049890;28;20653;-66
2022/10/05 11:37:35;;;;;;;4.03;3.73;;;22.30;99.90;;;;;;5058015;28;20626;-66
2022/10/05 11:40:33;;;;;;;4.40;4.00;;;22.20;99.90;;;;;;5059831;28;21365;-66
2022/10/05 11:43:19;;;;;;;3.77;3.33;;;22.30;99.90;;;;;;5060875;28;20626;-66
2022/10/05 11:46:00;;;;;;;4.73;3.30;;;22.10;99.90;;;;;;5058533;28;20599;-66
2022/10/05 11:48:44;;;;;;;3.50;3.30;;;22.50;99.90;;;;;;5060853;28;20617;-66
2022/10/05 11:51:34;;;;;;;3.60;3.40;;;22.50;99.90;;;;;;5059231;28;20658;-66
2022/10/05 11:54:38;;;;;;;3.70;3.33;;;22.50;99.90;;;;;;5061448;28;20705;-66
2022/10/05 11:57:09;;;;;;;3.50;3.30;;;22.70;99.90;;;;;;5053220;28;20712;-66
2022/10/05 11:59:48;;;;;;;3.73;3.43;;;23.10;99.90;;;;;;5052314;28;20684;-66
2022/10/05 12:02:48;;;;;;;4.77;3.77;;;23.10;99.90;;;;;;5052231;28;20719;-66
2022/10/05 12:05:22;;;;;;;4.57;4.00;;;23.90;99.90;;;;;;5052936;28;20611;-66
2022/10/05 12:08:06;;;;;;;5.03;3.80;;;23.30;99.90;;;;;;5060537;28;20634;-66
2022/10/05 12:10:43;;;;;;;3.93;3.67;;;23.60;99.90;;;;;;5055124;28;20626;-66
2022/10/05 12:13:22;;;;;;;3.33;3.13;;;23.90;99.90;;;;;;5058699;28;20614;-66
2022/10/05 12:15:56;;;;;;;3.20;3.10;;;24.70;99.90;;;;;;5049824;28;20642;-66
2022/10/05 12:18:42;;;;;;;3.90;3.53;;;24.70;99.90;;;;;;5051022;28;20638;-66
2022/10/05 12:21:23;;;;;;;4.10;3.73;;;25.10;99.90;;;;;;5059375;28;20646;-66
2022/10/05 12:23:56;;;;;;;6.67;4.23;;;25.20;99.90;;;;;;5050145;28;21164;-66
2022/10/05 12:26:29;;;;;;;4.43;4.10;;;25.40;99.90;;;;;;5051712;28;20622;-66
2022/10/05 12:29:06;;;;;;;4.40;4.00;;;25.50;99.90;;;;;;5059125;28;20630;-66
2022/10/05 12:31:45;;;;;;;7.53;4.10;;;24.50;99.90;;;;;;5052730;28;20668;-66
2022/10/05 12:34:24;;;;;;;4.47;4.17;;;24.50;99.90;;;;;;5049787;28;20788;-66
2022/10/05 12:36:58;;;;;;;3.43;3.33;;;24.10;99.90;;;;;;5061111;28;20625;-66
2022/10/05 12:39:32;;;;;;;3.67;3.47;;;24.50;99.90;;;;;;5055266;28;20618;-66
2022/10/05 12:42:20;;;;;;;3.50;3.30;;;23.90;99.90;;;;;;5058695;28;24019;-66
2022/10/05 12:45:09;;;;;;;7.07;3.87;;;24.10;99.90;;;;;;5048771;28;20619;-66
2022/10/05 12:48:06;;;;;;;4.03;3.70;;;25.10;99.90;;;;;;5057861;28;21221;-67
2022/10/05 12:50:36;;;;;;;4.47;4.27;;;25.10;99.90;;;;;;5049525;28;20743;-66
2022/10/05 12:53:19;;;;;;;4.27;3.87;;;24.30;99.90;;;;;;5047908;28;20626;-66
2022/10/05 12:55:56;;;;;;;3.97;3.50;;;24.50;99.90;;;;;;5055379;28;21030;-64
2022/10/05 12:58:34;;;;;;;3.67;3.50;;;25.40;99.90;;;;;;5057776;28;20610;-64
2022/10/05 13:01:08;;;;;;;4.47;4.00;;;25.40;99.90;;;;;;5055713;28;21160;-65
2022/10/05 13:03:39;;;;;;;3.77;3.47;;;25.30;99.90;;;;;;5055061;28;21007;-65
2022/10/05 13:06:17;;;;;;;4.20;3.80;;;25.50;99.90;;;;;;5058422;28;20975;-65
2022/10/05 13:08:52;;;;;;;3.83;3.53;;;25.10;99.90;;;;;;5047214;28;20611;-65
2022/10/05 13:11:30;;;;;;;3.70;3.50;;;25.70;99.90;;;;;;5054913;28;20894;-65
2022/10/05 13:14:08;;;;;;;6.70;4.47;;;25.70;99.90;;;;;;5058380;28;21331;-65
2022/10/05 13:16:47;;;;;;;4.00;3.70;;;24.90;99.90;;;;;;5054519;28;20672;-65
2022/10/05 13:19:28;;;;;;;4.97;3.80;;;24.90;99.90;;;;;;5055086;28;20640;-65
2022/10/05 13:22:13;;;;;;;3.83;3.63;;;24.90;99.90;;;;;;5051685;28;20634;-65
2022/10/05 13:24:53;;;;;;;6.10;3.50;;;25.40;99.90;;;;;;5053619;28;20615;-65
2022/10/05 13:27:27;;;;;;;4.53;4.13;;;25.60;99.90;;;;;;5048401;28;20594;-65
2022/10/05 13:30:01;;;;;;;5.23;3.87;;;25.30;99.90;;;;;;5051137;28;20681;-65
2022/10/05 13:32:34;;;;;;;4.40;4.10;;;25.90;99.90;;;;;;5048561;28;20571;-65
2022/10/05 13:35:20;;;;;;;4.70;4.40;;;25.80;99.90;;;;;;5068581;28;20638;-65
2022/10/05 13:38:02;;;;;;;4.40;4.00;;;26.50;99.90;;;;;;5060147;28;20672;-65
2022/10/05 13:40:39;;;;;;;4.40;4.10;;;26.60;99.90;;;;;;5068864;28;20620;-65
2022/10/05 13:43:17;;;;;;;4.30;4.10;;;25.50;99.90;;;;;;5060638;28;20607;-65
2022/10/05 13:45:51;;;;;;;4.30;4.10;;;25.80;99.90;;;;;;5053735;28;20990;-65
2022/10/05 13:48:36;;;;;;;4.80;4.30;;;26.00;99.90;;;;;;5062733;28;21059;-65
2022/10/05 13:51:11;;;;;;;4.20;4.00;;;25.70;99.90;;;;;;5050376;28;20662;-65
2022/10/05 13:53:47;;;;;;;4.20;3.90;;;26.20;99.90;;;;;;5050675;28;20599;-65
2022/10/05 13:56:21;;;;;;;4.40;3.97;;;25.90;99.90;;;;;;5053034;28;20714;-65
2022/10/05 13:58:55;;;;;;;4.47;4.17;;;26.30;99.90;;;;;;5063408;28;20614;-65